createdAt,value
2022-08-08T00:00:54.585Z,19.14
2022-08-08T00:01:08.367Z,19.20
2022-08-08T00:02:32.749Z,19.14
2022-08-08T00:03:13.164Z,19.21
2022-08-08T00:04:04.755Z,19.18
2022-08-08T00:05:03.602Z,19.15
2022-08-08T00:06:04.704Z,19.11
2022-08-08T00:07:12.504Z,19.10
2022-08-08T00:08:04.569Z,19.11
2022-08-08T00:09:03.581Z,19.10
2022-08-08T00:10:03.548Z,19.06
2022-08-08T00:11:07.872Z,19.01
2022-08-08T00:12:09.456Z,18.98
2022-08-08T00:13:04.520Z,18.95
2022-08-08T00:14:17.572Z,19.15
2022-08-08T00:15:04.925Z,18.99
2022-08-08T00:16:03.480Z,18.99
2022-08-08T00:17:03.474Z,19.02
2022-08-08T00:18:04.702Z,18.94
2022-08-08T00:19:03.445Z,18.94
2022-08-08T00:20:03.458Z,18.91
2022-08-08T00:21:05.372Z,18.92
2022-08-08T00:22:03.420Z,18.97
2022-08-08T00:23:03.407Z,18.90
2022-08-08T00:24:03.391Z,18.82
2022-08-08T00:25:03.400Z,18.83
2022-08-08T00:26:03.370Z,18.84
2022-08-08T00:27:03.365Z,18.74
2022-08-08T00:28:03.352Z,18.84
2022-08-08T00:29:03.338Z,18.87
2022-08-08T00:30:03.323Z,18.77
2022-08-08T00:32:21.292Z,18.76
2022-08-08T00:32:28.634Z,18.79
2022-08-08T00:33:04.286Z,18.76
2022-08-08T00:34:18.076Z,18.65
2022-08-08T00:35:04.486Z,18.57
2022-08-08T00:36:03.309Z,18.68
2022-08-08T00:37:03.747Z,18.62
2022-08-08T00:38:03.411Z,18.65
2022-08-08T00:39:03.235Z,18.61
2022-08-08T00:41:09.469Z,18.59
2022-08-08T00:41:11.272Z,18.57
2022-08-08T00:42:08.981Z,18.52
2022-08-08T00:43:11.998Z,18.58
2022-08-08T00:44:04.228Z,18.50
2022-08-08T00:45:03.399Z,18.49
2022-08-08T00:46:03.148Z,18.44
2022-08-08T00:47:04.539Z,18.46
2022-08-08T00:48:06.325Z,18.42
2022-08-08T00:49:03.110Z,18.49
2022-08-08T00:50:03.103Z,18.40
2022-08-08T00:51:03.086Z,18.36
2022-08-08T00:52:03.081Z,18.44
2022-08-08T00:53:03.078Z,18.31
2022-08-08T00:54:15.461Z,18.37
2022-08-08T00:55:04.038Z,18.37
2022-08-08T00:56:03.033Z,18.39
2022-08-08T00:57:03.022Z,18.31
2022-08-08T00:58:03.027Z,18.27
2022-08-08T00:59:02.999Z,18.25
2022-08-08T01:00:04.918Z,18.18
2022-08-08T01:01:03.091Z,18.18
2022-08-08T01:02:03.034Z,18.22
2022-08-08T01:03:59.070Z,18.18
2022-08-08T01:04:04.997Z,18.19
2022-08-08T01:05:03.901Z,18.13
2022-08-08T01:06:02.928Z,18.12
2022-08-08T01:07:06.054Z,18.21
2022-08-08T01:08:02.900Z,18.10
2022-08-08T01:09:34.800Z,18.04
2022-08-08T01:10:05.971Z,18.10
2022-08-08T01:11:02.856Z,18.09
2022-08-08T01:12:03.846Z,18.18
2022-08-08T01:13:02.834Z,18.03
2022-08-08T01:14:02.836Z,18.10
2022-08-08T01:15:02.808Z,18.04
2022-08-08T01:16:02.806Z,18.02
2022-08-08T01:17:02.793Z,17.95
2022-08-08T01:18:02.780Z,17.94
2022-08-08T01:19:11.750Z,17.95
2022-08-08T01:20:03.913Z,17.94
2022-08-08T01:21:02.754Z,18.03
2022-08-08T01:22:12.460Z,17.94
2022-08-08T01:23:03.715Z,17.97
2022-08-08T01:24:13.468Z,17.95
2022-08-08T01:25:03.714Z,17.91
2022-08-08T01:26:05.978Z,17.95
2022-08-08T01:27:07.102Z,17.92
2022-08-08T01:28:03.672Z,17.88
2022-08-08T01:29:02.653Z,17.92
2022-08-08T01:30:03.529Z,17.95
2022-08-08T01:31:02.631Z,17.89
2022-08-08T01:32:13.741Z,17.87
2022-08-08T01:33:16.277Z,17.82
2022-08-08T01:34:03.598Z,17.82
2022-08-08T01:35:02.586Z,17.84
2022-08-08T01:36:03.586Z,17.87
2022-08-08T01:37:02.556Z,17.81
2022-08-08T01:38:02.549Z,17.79
2022-08-08T01:39:02.582Z,17.82
2022-08-08T01:40:02.910Z,17.73
2022-08-08T01:41:02.580Z,17.84
2022-08-08T01:42:02.505Z,17.73
2022-08-08T01:43:02.494Z,17.78
2022-08-08T01:44:02.476Z,17.70
2022-08-08T01:45:02.472Z,17.73
2022-08-08T01:46:02.476Z,17.73
2022-08-08T01:47:05.990Z,17.78
2022-08-08T01:48:16.885Z,17.69
2022-08-08T01:49:03.425Z,17.71
2022-08-08T01:50:03.404Z,17.82
2022-08-08T01:51:02.418Z,17.70
2022-08-08T01:52:42.074Z,17.69
2022-08-08T01:55:26.171Z,17.73
2022-08-08T01:55:26.984Z,17.67
2022-08-08T01:55:45.331Z,17.71
2022-08-08T01:56:29.442Z,17.64
2022-08-08T01:57:03.329Z,17.64
2022-08-08T01:58:11.261Z,17.69
2022-08-08T01:59:03.301Z,17.69
2022-08-08T02:00:03.751Z,17.63
2022-08-08T02:01:02.351Z,17.69
2022-08-08T02:02:05.283Z,17.62
2022-08-08T02:03:04.471Z,17.63
2022-08-08T02:04:02.268Z,17.63
2022-08-08T02:05:02.237Z,17.66
2022-08-08T02:06:02.231Z,17.69
2022-08-08T02:07:02.233Z,17.59
2022-08-08T02:08:02.223Z,17.62
2022-08-08T02:09:02.200Z,17.51
2022-08-08T02:10:11.539Z,17.47
2022-08-08T02:11:03.169Z,17.57
2022-08-08T02:12:02.177Z,17.62
2022-08-08T02:13:02.149Z,17.54
2022-08-08T02:14:03.055Z,17.54
2022-08-08T02:15:03.111Z,17.54
2022-08-08T02:16:02.113Z,17.47
2022-08-08T02:17:02.132Z,17.41
2022-08-08T02:18:02.097Z,17.41
2022-08-08T02:19:03.056Z,17.48
2022-08-08T02:20:09.062Z,17.47
2022-08-08T02:21:07.994Z,17.44
2022-08-08T02:22:03.069Z,17.43
2022-08-08T02:23:02.044Z,17.36
2022-08-08T02:24:02.024Z,17.35
2022-08-08T02:25:07.106Z,17.44
2022-08-08T02:26:03.000Z,17.46
2022-08-08T02:27:02.008Z,17.40
2022-08-08T02:28:02.053Z,17.33
2022-08-08T02:29:01.969Z,17.44
2022-08-08T02:30:01.958Z,17.33
2022-08-08T02:31:04.567Z,17.35
2022-08-08T02:32:04.988Z,17.33
2022-08-08T02:33:01.925Z,17.38
2022-08-08T02:34:08.464Z,17.33
2022-08-08T02:35:11.219Z,17.33
2022-08-08T02:36:05.175Z,17.47
2022-08-08T02:37:01.879Z,17.38
2022-08-08T02:38:01.865Z,17.32
2022-08-08T02:39:01.855Z,17.22
2022-08-08T02:40:02.949Z,17.35
2022-08-08T02:41:01.838Z,17.30
2022-08-08T02:42:05.944Z,17.29
2022-08-08T02:44:36.997Z,17.26
2022-08-08T02:44:38.034Z,17.35
2022-08-08T02:45:03.768Z,17.32
2022-08-08T02:46:01.803Z,17.25
2022-08-08T02:47:01.773Z,17.30
2022-08-08T02:48:01.755Z,17.28
2022-08-08T02:49:01.743Z,17.13
2022-08-08T02:50:01.747Z,17.29
2022-08-08T02:51:01.730Z,17.20
2022-08-08T02:52:32.605Z,17.17
2022-08-08T02:53:02.696Z,17.26
2022-08-08T02:54:01.695Z,17.22
2022-08-08T02:55:02.225Z,17.18
2022-08-08T02:56:01.694Z,17.17
2022-08-08T02:57:01.655Z,17.15
2022-08-08T02:58:01.695Z,17.22
2022-08-08T02:59:01.631Z,17.20
2022-08-08T03:00:26.745Z,17.18
2022-08-08T03:01:02.717Z,17.17
2022-08-08T03:02:01.688Z,17.15
2022-08-08T03:03:01.593Z,17.11
2022-08-08T03:05:04.992Z,17.13
2022-08-08T03:05:09.135Z,17.10
2022-08-08T03:06:02.571Z,17.20
2022-08-08T03:07:01.545Z,17.11
2022-08-08T03:08:02.530Z,17.03
2022-08-08T03:09:01.530Z,17.06
2022-08-08T03:10:01.519Z,17.11
2022-08-08T03:11:01.507Z,17.04
2022-08-08T03:12:06.081Z,17.08
2022-08-08T03:13:33.447Z,17.04
2022-08-08T03:15:56.872Z,16.98
2022-08-08T03:15:57.988Z,17.10
2022-08-08T03:16:05.245Z,16.99
2022-08-08T03:17:01.448Z,16.89
2022-08-08T03:18:04.888Z,16.96
2022-08-08T03:19:02.408Z,16.90
2022-08-08T03:20:03.543Z,16.88
2022-08-08T03:21:01.795Z,16.90
2022-08-08T03:22:02.389Z,16.93
2022-08-08T03:23:04.589Z,16.89
2022-08-08T03:24:01.934Z,16.89
2022-08-08T03:25:01.350Z,16.86
2022-08-08T03:26:01.331Z,16.86
2022-08-08T03:27:01.338Z,16.95
2022-08-08T03:28:01.315Z,16.74
2022-08-08T03:29:01.299Z,16.86
2022-08-08T03:30:01.301Z,16.85
2022-08-08T03:31:22.779Z,16.73
2022-08-08T03:32:07.007Z,16.67
2022-08-08T03:33:07.712Z,16.73
2022-08-08T03:34:02.326Z,16.67
2022-08-08T03:35:01.246Z,16.77
2022-08-08T03:36:01.227Z,16.65
2022-08-08T03:37:01.231Z,16.60
2022-08-08T03:38:57.410Z,16.65
2022-08-08T03:39:14.327Z,16.60
2022-08-08T03:40:03.935Z,16.70
2022-08-08T03:41:01.294Z,16.56
2022-08-08T03:42:11.598Z,16.59
2022-08-08T03:43:16.734Z,16.59
2022-08-08T03:44:02.130Z,16.63
2022-08-08T03:45:02.152Z,16.52
2022-08-08T03:46:06.977Z,16.49
2022-08-08T03:47:14.137Z,16.44
2022-08-08T03:48:02.101Z,16.38
2022-08-08T03:49:56.324Z,16.40
2022-08-08T03:50:02.564Z,16.35
2022-08-08T03:51:01.062Z,16.33
2022-08-08T03:52:01.049Z,16.34
2022-08-08T03:53:01.054Z,16.34
2022-08-08T03:54:01.027Z,16.30
2022-08-08T03:55:10.289Z,16.38
2022-08-08T03:56:04.787Z,16.33
2022-08-08T03:58:31.948Z,16.30
2022-08-08T03:58:32.104Z,16.22
2022-08-08T03:59:01.963Z,16.22
2022-08-08T04:00:11.531Z,16.27
2022-08-08T04:01:24.211Z,16.20
2022-08-08T04:02:13.578Z,16.18
2022-08-08T04:03:03.430Z,16.23
2022-08-08T04:04:02.000Z,16.07
2022-08-08T04:05:00.901Z,16.23
2022-08-08T04:06:00.891Z,16.25
2022-08-08T04:07:01.870Z,16.04
2022-08-08T04:08:00.880Z,16.07
2022-08-08T04:09:07.011Z,16.06
2022-08-08T04:10:05.498Z,16.01
2022-08-08T04:11:00.835Z,16.15
2022-08-08T04:12:01.052Z,16.03
2022-08-08T04:13:00.820Z,15.97
2022-08-08T04:14:33.440Z,15.93
2022-08-08T04:15:01.792Z,15.96
2022-08-08T04:16:03.964Z,16.09
2022-08-08T04:17:00.759Z,15.99
2022-08-08T04:18:00.772Z,16.12
2022-08-08T04:19:00.736Z,15.97
2022-08-08T04:20:01.961Z,16.04
2022-08-08T04:21:00.946Z,15.99
2022-08-08T04:22:00.706Z,16.03
2022-08-08T04:23:03.338Z,16.11
2022-08-08T04:24:05.424Z,16.00
2022-08-08T04:25:02.418Z,16.03
2022-08-08T04:26:03.092Z,15.99
2022-08-08T04:27:01.647Z,16.06
2022-08-08T04:28:34.252Z,16.03
2022-08-08T04:29:01.650Z,16.01
2022-08-08T04:30:01.173Z,16.00
2022-08-08T04:31:04.547Z,15.99
2022-08-08T04:32:00.799Z,16.00
2022-08-08T04:33:00.583Z,16.00
2022-08-08T04:34:00.563Z,15.94
2022-08-08T04:35:01.239Z,16.01
2022-08-08T04:36:00.550Z,16.04
2022-08-08T04:37:03.708Z,16.14
2022-08-08T04:38:00.533Z,15.96
2022-08-08T04:39:47.774Z,16.01
2022-08-08T04:40:04.949Z,16.03
2022-08-08T04:41:01.577Z,16.14
2022-08-08T04:42:00.480Z,16.03
2022-08-08T04:43:00.967Z,16.06
2022-08-08T04:44:00.457Z,16.06
2022-08-08T04:45:00.464Z,15.99
2022-08-08T04:46:00.434Z,16.16
2022-08-08T04:47:00.431Z,16.04
2022-08-08T04:48:00.854Z,16.07
2022-08-08T04:49:00.398Z,16.12
2022-08-08T04:50:05.098Z,16.06
2022-08-08T04:51:01.371Z,16.18
2022-08-08T04:52:00.368Z,16.04
2022-08-08T04:53:04.798Z,16.22
2022-08-08T04:54:39.010Z,16.20
2022-08-08T04:55:01.759Z,16.07
2022-08-08T04:56:00.312Z,16.26
2022-08-08T04:57:00.303Z,16.20
2022-08-08T04:58:00.298Z,16.22
2022-08-08T04:59:00.282Z,16.23
2022-08-08T05:00:00.272Z,16.18
2022-08-08T05:01:00.281Z,16.33
2022-08-08T05:02:01.373Z,16.30
2022-08-08T05:03:00.235Z,16.34
2022-08-08T05:04:10.408Z,16.38
2022-08-08T05:05:01.210Z,16.42
2022-08-08T05:06:00.229Z,16.35
2022-08-08T05:07:01.196Z,16.41
2022-08-08T05:08:00.178Z,16.44
2022-08-08T05:09:02.707Z,16.44
2022-08-08T05:10:01.155Z,16.53
2022-08-08T05:11:00.158Z,16.53
2022-08-08T05:12:00.138Z,16.53
2022-08-08T05:13:02.083Z,16.68
2022-08-08T05:14:02.077Z,16.71
2022-08-08T05:15:00.100Z,16.62
2022-08-08T05:16:54.507Z,16.78
2022-08-08T05:17:02.026Z,16.74
2022-08-08T05:18:01.064Z,16.83
2022-08-08T05:19:00.053Z,16.81
2022-08-08T05:20:09.656Z,16.83
2022-08-08T05:21:01.035Z,16.85
2022-08-08T05:22:00.486Z,16.95
2022-08-08T05:23:00.014Z,16.93
2022-08-08T05:24:04.236Z,16.92
2022-08-08T05:25:00.981Z,17.04
2022-08-08T05:26:00.439Z,17.06
2022-08-08T05:26:59.981Z,17.10
2022-08-08T05:27:59.950Z,17.13
2022-08-08T05:29:06.255Z,17.30
2022-08-08T05:30:00.941Z,17.38
2022-08-08T05:30:59.922Z,17.41
2022-08-08T05:32:04.075Z,17.41
2022-08-08T05:32:59.891Z,17.53
2022-08-08T05:33:59.885Z,17.62
2022-08-08T05:35:04.705Z,17.66
2022-08-08T05:36:00.867Z,17.76
2022-08-08T05:36:59.848Z,17.97
2022-08-08T05:37:59.853Z,17.91
2022-08-08T05:38:59.831Z,18.00
2022-08-08T05:39:59.821Z,18.18
2022-08-08T05:40:59.809Z,18.33
2022-08-08T05:41:59.799Z,18.46
2022-08-08T05:42:59.803Z,18.55
2022-08-08T05:44:03.205Z,18.65
2022-08-08T05:45:00.405Z,18.77
2022-08-08T05:46:02.929Z,18.83
2022-08-08T05:47:03.046Z,18.98
2022-08-08T05:48:01.509Z,19.06
2022-08-08T05:49:00.719Z,19.15
2022-08-08T05:49:59.704Z,19.25
2022-08-08T05:51:13.356Z,19.31
2022-08-08T05:52:00.685Z,19.33
2022-08-08T05:53:54.892Z,19.54
2022-08-08T05:54:26.787Z,19.72
2022-08-08T05:55:03.456Z,19.75
2022-08-08T05:56:10.261Z,19.88
2022-08-08T05:57:00.621Z,19.91
2022-08-08T05:58:05.982Z,19.94
2022-08-08T05:59:03.568Z,20.09
2022-08-08T06:00:23.374Z,20.06
2022-08-08T06:01:00.577Z,20.18
2022-08-08T06:01:59.901Z,20.20
2022-08-08T06:02:59.621Z,20.24
2022-08-08T06:03:59.706Z,20.27
2022-08-08T06:04:59.532Z,20.38
2022-08-08T06:05:59.624Z,20.31
2022-08-08T06:07:00.292Z,20.34
2022-08-08T06:08:03.048Z,20.34
2022-08-08T06:09:41.678Z,20.41
2022-08-08T06:10:02.132Z,20.41
2022-08-08T06:10:59.464Z,20.51
2022-08-08T06:11:59.461Z,20.69
2022-08-08T06:12:59.459Z,20.72
2022-08-08T06:13:59.440Z,20.72
2022-08-08T06:14:59.420Z,20.86
2022-08-08T06:15:59.414Z,20.79
2022-08-08T06:16:59.395Z,20.84
2022-08-08T06:18:18.403Z,20.93
2022-08-08T06:19:00.395Z,21.01
2022-08-08T06:19:59.373Z,21.08
2022-08-08T06:20:59.354Z,21.06
2022-08-08T06:21:59.523Z,21.11
2022-08-08T06:22:59.327Z,21.11
2022-08-08T06:24:03.594Z,21.11
2022-08-08T06:25:00.312Z,21.09
2022-08-08T06:26:38.267Z,21.17
2022-08-08T06:27:00.282Z,21.17
2022-08-08T06:27:59.281Z,21.17
2022-08-08T06:29:02.416Z,21.17
2022-08-08T06:30:01.970Z,21.27
2022-08-08T06:30:59.243Z,21.44
2022-08-08T06:32:11.123Z,21.35
2022-08-08T06:33:00.996Z,21.39
2022-08-08T06:34:26.524Z,21.50
2022-08-08T06:35:35.527Z,21.45
2022-08-08T06:36:07.911Z,21.60
2022-08-08T06:37:00.258Z,21.78
2022-08-08T06:37:59.169Z,21.76
2022-08-08T06:38:59.166Z,21.82
2022-08-08T06:40:00.547Z,21.83
2022-08-08T06:40:59.134Z,21.85
2022-08-08T06:41:59.123Z,22.04
2022-08-08T06:42:59.103Z,22.12
2022-08-08T06:43:59.100Z,22.13
2022-08-08T06:44:59.089Z,22.16
2022-08-08T06:45:59.095Z,22.07
2022-08-08T06:46:59.060Z,22.09
2022-08-08T06:48:01.711Z,22.28
2022-08-08T06:48:59.095Z,22.34
2022-08-08T06:49:59.033Z,22.46
2022-08-08T06:50:59.027Z,22.71
2022-08-08T06:51:59.012Z,22.93
2022-08-08T06:52:59.005Z,23.14
2022-08-08T06:54:00.795Z,23.35
2022-08-08T06:54:59.572Z,23.50
2022-08-08T06:56:02.327Z,23.53
2022-08-08T06:56:58.956Z,23.70
2022-08-08T06:58:02.104Z,23.86
2022-08-08T06:58:59.926Z,23.92
2022-08-08T07:00:10.025Z,23.89
2022-08-08T07:00:59.943Z,23.92
2022-08-08T07:02:27.018Z,24.00
2022-08-08T07:02:59.959Z,23.94
2022-08-08T07:04:39.557Z,23.87
2022-08-08T07:05:00.499Z,23.72
2022-08-08T07:06:01.764Z,23.70
2022-08-08T07:06:58.847Z,23.43
2022-08-08T07:07:58.827Z,23.42
2022-08-08T07:08:58.813Z,23.34
2022-08-08T07:09:59.824Z,23.27
2022-08-08T07:10:58.791Z,23.15
2022-08-08T07:11:58.809Z,22.94
2022-08-08T07:12:58.782Z,22.89
2022-08-08T07:14:00.868Z,22.77
2022-08-08T07:14:58.751Z,22.80
2022-08-08T07:16:04.911Z,22.72
2022-08-08T07:16:59.740Z,22.77
2022-08-08T07:18:02.041Z,22.64
2022-08-08T07:18:59.706Z,22.57
2022-08-08T07:20:00.103Z,22.57
2022-08-08T07:20:58.683Z,22.60
2022-08-08T07:22:05.377Z,22.67
2022-08-08T07:22:59.670Z,22.71
2022-08-08T07:24:03.144Z,22.71
2022-08-08T07:24:59.637Z,22.74
2022-08-08T07:25:58.627Z,22.80
2022-08-08T07:26:58.620Z,22.89
2022-08-08T07:28:07.569Z,23.04
2022-08-08T07:28:59.597Z,23.07
2022-08-08T07:30:05.790Z,23.17
2022-08-08T07:30:59.593Z,23.09
2022-08-08T07:31:58.557Z,23.29
2022-08-08T07:32:59.492Z,23.26
2022-08-08T07:33:59.457Z,23.35
2022-08-08T07:35:00.531Z,23.35
2022-08-08T07:35:58.519Z,23.38
2022-08-08T07:36:58.518Z,23.39
2022-08-08T07:38:09.901Z,23.50
2022-08-08T07:38:59.475Z,23.53
2022-08-08T07:39:59.912Z,23.68
2022-08-08T07:40:58.528Z,23.64
2022-08-08T07:42:03.730Z,23.67
2022-08-08T07:42:59.587Z,23.64
2022-08-08T07:43:58.426Z,23.60
2022-08-08T07:44:58.424Z,23.49
2022-08-08T07:46:18.091Z,23.72
2022-08-08T07:46:59.392Z,23.71
2022-08-08T07:47:58.383Z,23.71
2022-08-08T07:48:58.382Z,23.83
2022-08-08T07:49:58.607Z,23.77
2022-08-08T07:50:58.354Z,23.77
2022-08-08T07:51:58.355Z,23.77
2022-08-08T07:52:58.331Z,23.70
2022-08-08T07:54:02.618Z,23.61
2022-08-08T07:54:59.312Z,23.52
2022-08-08T07:55:58.302Z,23.50
2022-08-08T07:56:58.290Z,23.67
2022-08-08T07:57:58.282Z,23.70
2022-08-08T07:58:58.288Z,23.70
2022-08-08T07:59:58.256Z,23.80
2022-08-08T08:01:00.071Z,23.77
2022-08-08T08:02:35.781Z,23.77
2022-08-08T08:02:59.220Z,23.79
2022-08-08T08:03:58.211Z,23.94
2022-08-08T08:04:58.213Z,23.95
2022-08-08T08:05:58.188Z,23.89
2022-08-08T08:06:58.169Z,23.97
2022-08-08T08:07:58.170Z,23.89
2022-08-08T08:08:58.155Z,23.89
2022-08-08T08:09:58.199Z,23.89
2022-08-08T08:10:58.133Z,23.95
2022-08-08T08:11:58.147Z,24.01
2022-08-08T08:12:58.111Z,24.00
2022-08-08T08:14:09.715Z,23.94
2022-08-08T08:14:59.108Z,23.97
2022-08-08T08:15:59.071Z,23.92
2022-08-08T08:16:58.065Z,24.00
2022-08-08T08:17:58.226Z,24.02
2022-08-08T08:18:58.044Z,24.00
2022-08-08T08:19:58.027Z,24.17
2022-08-08T08:20:58.096Z,24.16
2022-08-08T08:22:00.791Z,24.24
2022-08-08T08:22:58.012Z,24.37
2022-08-08T08:24:02.628Z,24.29
2022-08-08T08:24:57.979Z,24.39
2022-08-08T08:25:58.573Z,24.34
2022-08-08T08:26:57.968Z,24.41
2022-08-08T08:27:57.939Z,24.37
2022-08-08T08:28:57.934Z,24.44
2022-08-08T08:29:57.918Z,24.39
2022-08-08T08:30:57.930Z,24.34
2022-08-08T08:32:03.273Z,24.26
2022-08-08T08:32:59.197Z,24.34
2022-08-08T08:33:57.876Z,24.20
2022-08-08T08:34:57.867Z,24.17
2022-08-08T08:36:18.881Z,24.24
2022-08-08T08:36:58.840Z,24.37
2022-08-08T08:38:18.926Z,24.45
2022-08-08T08:38:58.824Z,24.53
2022-08-08T08:40:00.497Z,24.83
2022-08-08T08:40:57.803Z,25.13
2022-08-08T08:41:57.799Z,25.32
2022-08-08T08:42:57.778Z,25.54
2022-08-08T08:44:13.798Z,25.72
2022-08-08T08:44:58.769Z,25.84
2022-08-08T08:45:57.861Z,25.77
2022-08-08T08:46:58.801Z,25.89
2022-08-08T08:47:58.680Z,25.68
2022-08-08T08:48:57.715Z,25.50
2022-08-08T08:49:57.696Z,25.65
2022-08-08T08:50:57.689Z,25.62
2022-08-08T08:51:57.687Z,25.64
2022-08-08T08:52:59.912Z,25.72
2022-08-08T08:54:00.770Z,26.04
2022-08-08T08:54:57.638Z,26.39
2022-08-08T08:56:02.660Z,26.68
2022-08-08T08:56:58.629Z,26.86
2022-08-08T08:57:57.612Z,27.13
2022-08-08T08:58:57.972Z,27.58
2022-08-08T09:00:01.880Z,27.73
2022-08-08T09:01:09.118Z,27.66
2022-08-08T09:01:58.649Z,27.50
2022-08-08T09:02:57.547Z,27.57
2022-08-08T09:03:57.535Z,27.42
2022-08-08T09:04:57.544Z,27.48
2022-08-08T09:05:57.514Z,27.39
2022-08-08T09:06:57.521Z,27.41
2022-08-08T09:08:12.963Z,27.57
2022-08-08T09:08:58.486Z,27.92
2022-08-08T09:09:58.362Z,28.29
2022-08-08T09:10:57.457Z,28.70
2022-08-08T09:12:01.992Z,29.10
2022-08-08T09:12:58.448Z,29.43
2022-08-08T09:13:57.426Z,29.92
2022-08-08T09:14:57.413Z,30.31
2022-08-08T09:16:03.341Z,30.74
2022-08-08T09:16:58.407Z,31.02
2022-08-08T09:17:57.648Z,31.04
2022-08-08T09:18:57.371Z,31.30
2022-08-08T09:21:58.687Z,31.62
2022-08-08T09:22:02.958Z,31.48
2022-08-08T09:22:06.240Z,31.77
2022-08-08T09:22:58.998Z,31.82
2022-08-08T09:23:57.326Z,32.00
2022-08-08T09:24:58.564Z,32.20
2022-08-08T09:26:02.022Z,32.48
2022-08-08T09:26:58.291Z,32.62
2022-08-08T09:27:58.578Z,32.77
2022-08-08T09:28:57.261Z,32.91
2022-08-08T09:29:57.258Z,33.11
2022-08-08T09:30:57.243Z,33.42
2022-08-08T09:31:57.730Z,33.52
2022-08-08T09:33:13.124Z,33.70
2022-08-08T09:34:30.840Z,33.90
2022-08-08T09:34:58.198Z,34.02
2022-08-08T09:35:57.187Z,34.17
2022-08-08T09:37:57.812Z,34.44
2022-08-08T09:38:01.841Z,34.53
2022-08-08T09:38:58.010Z,34.79
2022-08-08T09:39:57.208Z,34.89
2022-08-08T09:40:57.828Z,34.58
2022-08-08T09:42:21.178Z,34.50
2022-08-08T09:42:58.112Z,34.56
2022-08-08T09:44:06.197Z,34.83
2022-08-08T09:44:58.098Z,35.01
2022-08-08T09:46:02.808Z,35.20
2022-08-08T09:47:05.349Z,35.45
2022-08-08T09:48:10.028Z,35.67
2022-08-08T09:48:58.062Z,35.85
2022-08-08T09:49:58.870Z,36.14
2022-08-08T09:50:58.027Z,36.42
2022-08-08T09:52:06.699Z,36.64
2022-08-08T09:53:00.872Z,36.77
2022-08-08T09:54:08.447Z,36.91
2022-08-08T09:54:57.991Z,37.05
2022-08-08T09:56:05.351Z,37.21
2022-08-08T09:56:57.963Z,37.31
2022-08-08T09:57:56.955Z,37.24
2022-08-08T09:58:57.871Z,37.29
2022-08-08T10:00:59.014Z,37.35
2022-08-08T10:01:59.937Z,37.61
2022-08-08T10:02:57.908Z,37.71
2022-08-08T10:03:57.333Z,37.70
2022-08-08T10:04:56.967Z,37.83
2022-08-08T10:05:56.954Z,37.92
2022-08-08T10:06:56.861Z,37.98
2022-08-08T10:07:59.724Z,38.23
2022-08-08T10:08:56.854Z,38.38
2022-08-08T10:10:00.581Z,38.46
2022-08-08T10:10:56.827Z,38.61
2022-08-08T10:12:26.221Z,38.70
2022-08-08T10:13:00.299Z,38.80
2022-08-08T10:13:57.837Z,38.86
2022-08-08T10:14:56.792Z,39.10
2022-08-08T10:15:59.200Z,39.28
2022-08-08T10:16:56.764Z,39.36
2022-08-08T10:18:11.752Z,39.51
2022-08-08T10:18:57.735Z,39.43
2022-08-08T10:19:58.256Z,39.49
2022-08-08T10:21:00.706Z,39.33
2022-08-08T10:21:57.713Z,39.28
2022-08-08T10:22:56.703Z,39.20
2022-08-08T10:23:59.273Z,39.15
2022-08-08T10:24:56.675Z,38.99
2022-08-08T10:25:57.485Z,38.90
2022-08-08T10:26:59.298Z,38.76
2022-08-08T10:27:57.699Z,38.33
2022-08-08T10:28:56.924Z,37.86
2022-08-08T10:29:59.487Z,37.68
2022-08-08T10:31:00.553Z,37.85
2022-08-08T10:31:57.625Z,37.77
2022-08-08T10:32:56.595Z,37.51
2022-08-08T10:34:19.946Z,37.43
2022-08-08T10:35:01.377Z,37.35
2022-08-08T10:36:09.720Z,36.54
2022-08-08T10:36:59.894Z,35.72
2022-08-08T10:37:56.546Z,35.45
2022-08-08T10:38:56.544Z,35.35
2022-08-08T10:39:56.586Z,35.36
2022-08-08T10:40:56.524Z,35.44
2022-08-08T10:42:13.049Z,35.15
2022-08-08T10:42:57.496Z,34.73
2022-08-08T10:43:56.486Z,34.64
2022-08-08T10:44:56.477Z,34.53
2022-08-08T10:45:58.760Z,34.41
2022-08-08T10:46:56.458Z,34.36
2022-08-08T10:47:56.474Z,34.38
2022-08-08T10:48:58.964Z,34.38
2022-08-08T10:50:01.686Z,34.48
2022-08-08T10:50:57.418Z,34.35
2022-08-08T10:51:56.408Z,34.24
2022-08-08T10:52:56.426Z,33.82
2022-08-08T10:53:59.582Z,33.45
2022-08-08T10:54:56.387Z,33.27
2022-08-08T10:55:56.370Z,33.31
2022-08-08T10:56:56.361Z,33.06
2022-08-08T10:57:56.371Z,32.35
2022-08-08T10:58:56.349Z,31.99
2022-08-08T10:59:56.330Z,31.95
2022-08-08T11:01:04.955Z,31.99
2022-08-08T11:01:57.342Z,32.06
2022-08-08T11:02:56.317Z,32.15
2022-08-08T11:04:02.303Z,32.21
2022-08-08T11:04:57.281Z,32.36
2022-08-08T11:06:00.702Z,32.55
2022-08-08T11:06:56.270Z,32.73
2022-08-08T11:08:36.875Z,32.86
2022-08-08T11:08:57.249Z,32.80
2022-08-08T11:09:56.241Z,32.77
2022-08-08T11:10:56.225Z,32.86
2022-08-08T11:12:05.250Z,32.81
2022-08-08T11:13:25.433Z,32.99
2022-08-08T11:13:59.974Z,33.07
2022-08-08T11:14:56.184Z,32.99
2022-08-08T11:16:01.470Z,33.11
2022-08-08T11:16:57.164Z,33.22
2022-08-08T11:17:59.742Z,33.03
2022-08-08T11:18:57.164Z,32.85
2022-08-08T11:19:56.132Z,32.71
2022-08-08T11:20:56.132Z,32.67
2022-08-08T11:21:56.492Z,32.73
2022-08-08T11:22:56.112Z,32.69
2022-08-08T11:24:02.191Z,32.73
2022-08-08T11:24:57.090Z,32.69
2022-08-08T11:25:58.440Z,32.91
2022-08-08T11:26:56.671Z,33.06
2022-08-08T11:27:56.051Z,32.91
2022-08-08T11:28:56.060Z,32.98
2022-08-08T11:30:19.324Z,32.89
2022-08-08T11:30:57.030Z,32.96
2022-08-08T11:31:56.011Z,33.06
2022-08-08T11:32:56.004Z,32.99
2022-08-08T11:34:02.882Z,33.03
2022-08-08T11:35:24.424Z,33.08
2022-08-08T11:35:56.977Z,33.19
2022-08-08T11:36:58.785Z,33.22
2022-08-08T11:38:39.735Z,33.45
2022-08-08T11:38:56.955Z,33.48
2022-08-08T11:39:57.509Z,33.46
2022-08-08T11:40:55.927Z,33.46
2022-08-08T11:41:55.910Z,33.45
2022-08-08T11:42:55.901Z,33.45
2022-08-08T11:43:57.883Z,33.39
2022-08-08T11:44:55.901Z,33.51
2022-08-08T11:46:17.882Z,33.48
2022-08-08T11:46:56.864Z,33.49
2022-08-08T11:48:02.612Z,33.53
2022-08-08T11:48:56.853Z,33.48
2022-08-08T11:49:55.834Z,33.57
2022-08-08T11:50:55.840Z,33.46
2022-08-08T11:51:55.813Z,33.48
2022-08-08T11:52:55.796Z,33.39
2022-08-08T11:54:01.107Z,33.31
2022-08-08T11:54:56.775Z,33.22
2022-08-08T11:55:55.779Z,33.27
2022-08-08T11:56:56.009Z,33.33
2022-08-08T11:58:00.004Z,33.29
2022-08-08T11:58:56.741Z,33.37
2022-08-08T12:00:01.346Z,33.36
2022-08-08T12:00:56.723Z,33.20
2022-08-08T12:02:15.018Z,33.14
2022-08-08T12:02:56.743Z,33.13
2022-08-08T12:03:59.459Z,33.20
2022-08-08T12:04:55.679Z,33.26
2022-08-08T12:05:55.678Z,33.36
2022-08-08T12:06:55.656Z,33.34
2022-08-08T12:07:56.063Z,33.41
2022-08-08T12:08:55.628Z,33.43
2022-08-08T12:09:57.096Z,33.43
2022-08-08T12:10:55.625Z,33.48
2022-08-08T12:11:55.602Z,33.51
2022-08-08T12:12:56.040Z,33.48
2022-08-08T12:14:03.354Z,33.58
2022-08-08T12:14:56.667Z,33.52
2022-08-08T12:15:55.631Z,33.53
2022-08-08T12:16:55.565Z,33.61
2022-08-08T12:17:55.534Z,33.52
2022-08-08T12:18:55.531Z,33.42
2022-08-08T12:19:55.519Z,33.45
2022-08-08T12:20:56.631Z,33.33
2022-08-08T12:22:00.422Z,33.42
2022-08-08T12:22:57.122Z,33.45
2022-08-08T12:23:59.248Z,33.37
2022-08-08T12:24:56.315Z,33.52
2022-08-08T12:25:56.767Z,33.48
2022-08-08T12:26:56.996Z,33.30
2022-08-08T12:27:55.434Z,33.10
2022-08-08T12:28:55.424Z,32.85
2022-08-08T12:29:55.414Z,32.95
2022-08-08T12:30:55.403Z,32.91
2022-08-08T12:31:55.396Z,33.08
2022-08-08T12:32:55.395Z,32.96
2022-08-08T12:34:02.457Z,33.14
2022-08-08T12:35:00.923Z,33.14
2022-08-08T12:35:56.341Z,33.15
2022-08-08T12:36:55.345Z,33.11
2022-08-08T12:38:02.424Z,33.23
2022-08-08T12:38:56.310Z,33.27
2022-08-08T12:40:00.364Z,33.30
2022-08-08T12:41:00.057Z,33.27
2022-08-08T12:42:01.490Z,33.30
2022-08-08T12:42:56.283Z,33.17
2022-08-08T12:44:00.398Z,33.36
2022-08-08T12:44:56.249Z,33.37
2022-08-08T12:46:02.454Z,33.42
2022-08-08T12:46:59.400Z,33.48
2022-08-08T12:48:04.348Z,33.49
2022-08-08T12:49:21.897Z,33.65
2022-08-08T12:49:56.192Z,33.65
2022-08-08T12:50:57.252Z,33.57
2022-08-08T12:52:00.090Z,33.57
2022-08-08T12:52:56.183Z,33.64